sensor_id;sensor_type;location;lat;lon;timestamp;temperature;humidity
75170;SHT31;63749;49.186;9.222;2022-12-07T00:01:07;3.87;89.80
75170;SHT31;63749;49.186;9.222;2022-12-07T00:03:33;3.81;90.15
75170;SHT31;63749;49.186;9.222;2022-12-07T00:05:59;3.75;90.48
75170;SHT31;63749;49.186;9.222;2022-12-07T00:08:25;3.78;90.36
75170;SHT31;63749;49.186;9.222;2022-12-07T00:10:50;3.76;90.48
75170;SHT31;63749;49.186;9.222;2022-12-07T00:13:15;3.78;90.47
75170;SHT31;63749;49.186;9.222;2022-12-07T00:15:41;3.71;90.71
75170;SHT31;63749;49.186;9.222;2022-12-07T00:18:06;3.79;90.42
75170;SHT31;63749;49.186;9.222;2022-12-07T00:20:31;3.78;90.85
75170;SHT31;63749;49.186;9.222;2022-12-07T00:22:58;3.79;90.75
75170;SHT31;63749;49.186;9.222;2022-12-07T00:25:23;3.81;90.81
75170;SHT31;63749;49.186;9.222;2022-12-07T00:27:48;3.75;91.04
75170;SHT31;63749;49.186;9.222;2022-12-07T00:30:14;3.69;91.07
75170;SHT31;63749;49.186;9.222;2022-12-07T00:32:39;3.68;91.12
75170;SHT31;63749;49.186;9.222;2022-12-07T00:35:05;3.71;91.18
75170;SHT31;63749;49.186;9.222;2022-12-07T00:37:30;3.75;91.12
75170;SHT31;63749;49.186;9.222;2022-12-07T00:39:56;3.79;91.10
75170;SHT31;63749;49.186;9.222;2022-12-07T00:42:21;3.85;90.63
75170;SHT31;63749;49.186;9.222;2022-12-07T00:44:46;3.81;90.75
75170;SHT31;63749;49.186;9.222;2022-12-07T00:47:11;3.79;91.02
75170;SHT31;63749;49.186;9.222;2022-12-07T00:49:37;3.76;90.92
75170;SHT31;63749;49.186;9.222;2022-12-07T00:52:02;3.76;91.32
75170;SHT31;63749;49.186;9.222;2022-12-07T00:54:28;3.68;91.33
75170;SHT31;63749;49.186;9.222;2022-12-07T00:56:53;3.65;91.65
75170;SHT31;63749;49.186;9.222;2022-12-07T00:59:18;3.71;91.23
75170;SHT31;63749;49.186;9.222;2022-12-07T01:01:43;3.62;91.32
75170;SHT31;63749;49.186;9.222;2022-12-07T01:04:09;3.57;91.45
75170;SHT31;63749;49.186;9.222;2022-12-07T01:06:34;3.62;91.33
75170;SHT31;63749;49.186;9.222;2022-12-07T01:09:00;3.52;91.58
75170;SHT31;63749;49.186;9.222;2022-12-07T01:11:27;3.39;91.97
75170;SHT31;63749;49.186;9.222;2022-12-07T01:13:54;3.32;92.41
75170;SHT31;63749;49.186;9.222;2022-12-07T01:16:22;3.28;92.60
75170;SHT31;63749;49.186;9.222;2022-12-07T01:18:50;3.26;92.76
75170;SHT31;63749;49.186;9.222;2022-12-07T01:21:23;3.26;93.13
75170;SHT31;63749;49.186;9.222;2022-12-07T01:23:49;3.26;93.04
75170;SHT31;63749;49.186;9.222;2022-12-07T01:26:18;3.27;93.04
75170;SHT31;63749;49.186;9.222;2022-12-07T01:28:44;3.30;93.20
75170;SHT31;63749;49.186;9.222;2022-12-07T01:31:13;3.39;93.13
75170;SHT31;63749;49.186;9.222;2022-12-07T01:33:41;3.41;92.90
75170;SHT31;63749;49.186;9.222;2022-12-07T01:36:12;3.38;92.68
75170;SHT31;63749;49.186;9.222;2022-12-07T01:38:38;3.39;92.99
75170;SHT31;63749;49.186;9.222;2022-12-07T01:41:04;3.42;92.84
75170;SHT31;63749;49.186;9.222;2022-12-07T01:43:31;3.45;92.89
75170;SHT31;63749;49.186;9.222;2022-12-07T01:45:56;3.57;92.30
75170;SHT31;63749;49.186;9.222;2022-12-07T01:48:27;3.59;91.85
75170;SHT31;63749;49.186;9.222;2022-12-07T01:50:56;3.57;91.84
75170;SHT31;63749;49.186;9.222;2022-12-07T01:53:27;3.39;92.76
75170;SHT31;63749;49.186;9.222;2022-12-07T01:55:55;3.38;93.02
75170;SHT31;63749;49.186;9.222;2022-12-07T01:58:21;3.35;93.38
75170;SHT31;63749;49.186;9.222;2022-12-07T02:00:47;3.38;93.35
75170;SHT31;63749;49.186;9.222;2022-12-07T02:03:22;3.34;93.52
75170;SHT31;63749;49.186;9.222;2022-12-07T02:05:49;3.32;93.58
75170;SHT31;63749;49.186;9.222;2022-12-07T02:08:16;3.31;93.96
75170;SHT31;63749;49.186;9.222;2022-12-07T02:10:42;3.27;94.02
75170;SHT31;63749;49.186;9.222;2022-12-07T02:13:21;3.32;93.96
75170;SHT31;63749;49.186;9.222;2022-12-07T02:18:48;3.39;94.03
75170;SHT31;63749;49.186;9.222;2022-12-07T02:24:24;3.50;93.57
75170;SHT31;63749;49.186;9.222;2022-12-07T02:30:04;3.79;92.89
75170;SHT31;63749;49.186;9.222;2022-12-07T02:35:35;3.92;92.09
75170;SHT31;63749;49.186;9.222;2022-12-07T02:38:31;3.92;92.02
75170;SHT31;63749;49.186;9.222;2022-12-07T02:43:42;3.92;91.83
75170;SHT31;63749;49.186;9.222;2022-12-07T02:46:11;3.90;91.81
75170;SHT31;63749;49.186;9.222;2022-12-07T02:48:39;3.92;91.92
75170;SHT31;63749;49.186;9.222;2022-12-07T02:51:06;3.89;92.07
75170;SHT31;63749;49.186;9.222;2022-12-07T02:53:36;3.78;92.76
75170;SHT31;63749;49.186;9.222;2022-12-07T02:56:07;3.71;92.78
75170;SHT31;63749;49.186;9.222;2022-12-07T03:04:40;3.62;93.11
75170;SHT31;63749;49.186;9.222;2022-12-07T03:10:13;3.54;93.50
75170;SHT31;63749;49.186;9.222;2022-12-07T03:12:48;3.51;93.52
75170;SHT31;63749;49.186;9.222;2022-12-07T03:15:20;3.51;93.70
75170;SHT31;63749;49.186;9.222;2022-12-07T03:17:49;3.48;93.78
75170;SHT31;63749;49.186;9.222;2022-12-07T03:20:18;3.50;93.68
75170;SHT31;63749;49.186;9.222;2022-12-07T03:22:46;3.66;92.73
75170;SHT31;63749;49.186;9.222;2022-12-07T03:25:14;3.83;91.64
75170;SHT31;63749;49.186;9.222;2022-12-07T03:27:49;3.90;91.06
75170;SHT31;63749;49.186;9.222;2022-12-07T03:30:20;3.90;91.50
75170;SHT31;63749;49.186;9.222;2022-12-07T03:33:13;3.86;91.88
75170;SHT31;63749;49.186;9.222;2022-12-07T03:35:45;3.82;92.02
75170;SHT31;63749;49.186;9.222;2022-12-07T03:38:23;3.82;92.20
75170;SHT31;63749;49.186;9.222;2022-12-07T03:43:21;3.95;91.95
75170;SHT31;63749;49.186;9.222;2022-12-07T03:46:04;4.11;91.09
75170;SHT31;63749;49.186;9.222;2022-12-07T03:48:44;4.09;91.02
75170;SHT31;63749;49.186;9.222;2022-12-07T03:51:22;4.03;91.08
75170;SHT31;63749;49.186;9.222;2022-12-07T03:53:59;3.90;91.57
75170;SHT31;63749;49.186;9.222;2022-12-07T03:56:26;3.99;91.67
75170;SHT31;63749;49.186;9.222;2022-12-07T03:58:53;3.95;91.52
75170;SHT31;63749;49.186;9.222;2022-12-07T04:01:19;3.82;92.14
75170;SHT31;63749;49.186;9.222;2022-12-07T04:03:44;3.81;92.31
75170;SHT31;63749;49.186;9.222;2022-12-07T04:06:10;3.78;92.41
75170;SHT31;63749;49.186;9.222;2022-12-07T04:08:36;3.72;92.41
75170;SHT31;63749;49.186;9.222;2022-12-07T04:11:01;3.74;92.35
75170;SHT31;63749;49.186;9.222;2022-12-07T04:13:26;3.68;92.68
75170;SHT31;63749;49.186;9.222;2022-12-07T04:15:52;3.68;92.70
75170;SHT31;63749;49.186;9.222;2022-12-07T04:18:17;3.72;92.41
75170;SHT31;63749;49.186;9.222;2022-12-07T04:20:43;3.66;92.67
75170;SHT31;63749;49.186;9.222;2022-12-07T04:23:08;3.61;92.84
75170;SHT31;63749;49.186;9.222;2022-12-07T04:25:33;3.65;92.99
75170;SHT31;63749;49.186;9.222;2022-12-07T04:27:59;3.55;93.14
75170;SHT31;63749;49.186;9.222;2022-12-07T04:30:24;3.52;93.09
75170;SHT31;63749;49.186;9.222;2022-12-07T04:32:50;3.58;92.89
75170;SHT31;63749;49.186;9.222;2022-12-07T04:35:15;3.64;92.80
75170;SHT31;63749;49.186;9.222;2022-12-07T04:37:40;3.72;92.00
75170;SHT31;63749;49.186;9.222;2022-12-07T04:40:08;3.71;91.83
75170;SHT31;63749;49.186;9.222;2022-12-07T04:42:36;3.74;91.84
75170;SHT31;63749;49.186;9.222;2022-12-07T04:45:01;3.82;91.05
75170;SHT31;63749;49.186;9.222;2022-12-07T04:47:27;3.90;90.73
75170;SHT31;63749;49.186;9.222;2022-12-07T04:49:52;3.93;90.48
75170;SHT31;63749;49.186;9.222;2022-12-07T04:52:17;3.93;90.92
75170;SHT31;63749;49.186;9.222;2022-12-07T04:54:43;3.93;91.04
75170;SHT31;63749;49.186;9.222;2022-12-07T04:57:08;3.87;91.15
75170;SHT31;63749;49.186;9.222;2022-12-07T04:59:33;3.86;91.44
75170;SHT31;63749;49.186;9.222;2022-12-07T05:01:59;3.89;91.29
75170;SHT31;63749;49.186;9.222;2022-12-07T05:04:24;3.87;91.56
75170;SHT31;63749;49.186;9.222;2022-12-07T05:06:49;3.85;91.59
75170;SHT31;63749;49.186;9.222;2022-12-07T05:09:14;3.89;91.88
75170;SHT31;63749;49.186;9.222;2022-12-07T05:11:40;3.93;91.55
75170;SHT31;63749;49.186;9.222;2022-12-07T05:16:37;3.90;91.12
75170;SHT31;63749;49.186;9.222;2022-12-07T05:19:03;3.92;90.71
75170;SHT31;63749;49.186;9.222;2022-12-07T05:21:29;3.93;90.82
75170;SHT31;63749;49.186;9.222;2022-12-07T05:23:54;3.81;91.09
75170;SHT31;63749;49.186;9.222;2022-12-07T05:26:21;3.72;91.57
75170;SHT31;63749;49.186;9.222;2022-12-07T05:28:53;3.62;91.83
75170;SHT31;63749;49.186;9.222;2022-12-07T05:31:19;3.69;91.74
75170;SHT31;63749;49.186;9.222;2022-12-07T05:33:44;3.71;91.37
75170;SHT31;63749;49.186;9.222;2022-12-07T05:36:09;3.87;90.75
75170;SHT31;63749;49.186;9.222;2022-12-07T05:38:35;3.97;90.41
75170;SHT31;63749;49.186;9.222;2022-12-07T05:41:05;3.87;90.49
75170;SHT31;63749;49.186;9.222;2022-12-07T05:43:31;3.78;91.03
75170;SHT31;63749;49.186;9.222;2022-12-07T05:45:56;3.85;90.53
75170;SHT31;63749;49.186;9.222;2022-12-07T05:48:22;3.71;91.11
75170;SHT31;63749;49.186;9.222;2022-12-07T05:50:48;3.82;90.76
75170;SHT31;63749;49.186;9.222;2022-12-07T05:53:14;3.81;90.53
75170;SHT31;63749;49.186;9.222;2022-12-07T05:55:39;3.79;90.75
75170;SHT31;63749;49.186;9.222;2022-12-07T05:58:04;3.90;90.10
75170;SHT31;63749;49.186;9.222;2022-12-07T06:00:48;3.86;90.04
75170;SHT31;63749;49.186;9.222;2022-12-07T06:03:13;3.92;89.69
75170;SHT31;63749;49.186;9.222;2022-12-07T06:05:38;3.93;89.33
75170;SHT31;63749;49.186;9.222;2022-12-07T06:08:04;3.89;89.38
75170;SHT31;63749;49.186;9.222;2022-12-07T06:10:29;3.87;89.17
75170;SHT31;63749;49.186;9.222;2022-12-07T06:12:54;3.86;89.27
75170;SHT31;63749;49.186;9.222;2022-12-07T06:15:20;3.82;88.97
75170;SHT31;63749;49.186;9.222;2022-12-07T06:17:45;3.89;88.66
75170;SHT31;63749;49.186;9.222;2022-12-07T06:20:10;4.00;87.77
75170;SHT31;63749;49.186;9.222;2022-12-07T06:22:36;4.07;87.62
75170;SHT31;63749;49.186;9.222;2022-12-07T06:25:01;4.06;87.88
75170;SHT31;63749;49.186;9.222;2022-12-07T06:27:26;4.11;86.70
75170;SHT31;63749;49.186;9.222;2022-12-07T06:29:52;4.14;87.32
75170;SHT31;63749;49.186;9.222;2022-12-07T06:32:17;4.10;87.79
75170;SHT31;63749;49.186;9.222;2022-12-07T06:34:42;4.02;88.35
75170;SHT31;63749;49.186;9.222;2022-12-07T06:37:08;4.02;88.57
75170;SHT31;63749;49.186;9.222;2022-12-07T06:39:33;4.14;88.04
75170;SHT31;63749;49.186;9.222;2022-12-07T06:41:58;4.09;88.11
75170;SHT31;63749;49.186;9.222;2022-12-07T06:44:24;4.75;93.64
75170;SHT31;63749;49.186;9.222;2022-12-07T06:46:50;4.75;94.18
75170;SHT31;63749;49.186;9.222;2022-12-07T06:49:15;4.58;91.27
75170;SHT31;63749;49.186;9.222;2022-12-07T06:51:41;4.60;88.05
75170;SHT31;63749;49.186;9.222;2022-12-07T06:54:08;4.81;88.43
75170;SHT31;63749;49.186;9.222;2022-12-07T06:56:33;4.51;86.54
75170;SHT31;63749;49.186;9.222;2022-12-07T06:58:59;4.23;86.67
75170;SHT31;63749;49.186;9.222;2022-12-07T07:01:24;4.10;88.01
75170;SHT31;63749;49.186;9.222;2022-12-07T07:03:49;4.23;89.10
75170;SHT31;63749;49.186;9.222;2022-12-07T07:06:15;4.36;91.77
75170;SHT31;63749;49.186;9.222;2022-12-07T07:08:40;4.20;87.16
75170;SHT31;63749;49.186;9.222;2022-12-07T07:11:07;4.17;88.74
75170;SHT31;63749;49.186;9.222;2022-12-07T07:13:33;4.14;87.37
75170;SHT31;63749;49.186;9.222;2022-12-07T07:15:59;4.07;87.60
75170;SHT31;63749;49.186;9.222;2022-12-07T07:18:25;4.00;88.06
75170;SHT31;63749;49.186;9.222;2022-12-07T07:20:51;3.96;87.89
75170;SHT31;63749;49.186;9.222;2022-12-07T07:23:17;4.00;87.63
75170;SHT31;63749;49.186;9.222;2022-12-07T07:25:42;4.06;87.99
75170;SHT31;63749;49.186;9.222;2022-12-07T07:28:08;4.10;87.44
75170;SHT31;63749;49.186;9.222;2022-12-07T07:30:33;4.30;89.06
75170;SHT31;63749;49.186;9.222;2022-12-07T07:33:03;4.34;86.70
75170;SHT31;63749;49.186;9.222;2022-12-07T07:35:29;4.30;87.20
75170;SHT31;63749;49.186;9.222;2022-12-07T07:37:55;4.26;86.36
75170;SHT31;63749;49.186;9.222;2022-12-07T07:40:20;4.33;86.90
75170;SHT31;63749;49.186;9.222;2022-12-07T07:42:53;4.37;86.27
75170;SHT31;63749;49.186;9.222;2022-12-07T07:45:19;4.29;86.38
75170;SHT31;63749;49.186;9.222;2022-12-07T07:47:45;4.33;87.31
75170;SHT31;63749;49.186;9.222;2022-12-07T07:50:10;4.32;86.30
75170;SHT31;63749;49.186;9.222;2022-12-07T07:52:36;4.33;85.46
75170;SHT31;63749;49.186;9.222;2022-12-07T07:55:01;4.33;85.21
75170;SHT31;63749;49.186;9.222;2022-12-07T07:57:27;4.38;85.89
75170;SHT31;63749;49.186;9.222;2022-12-07T07:59:52;4.41;85.50
75170;SHT31;63749;49.186;9.222;2022-12-07T08:02:19;4.53;85.14
75170;SHT31;63749;49.186;9.222;2022-12-07T08:04:46;4.54;84.49
75170;SHT31;63749;49.186;9.222;2022-12-07T08:07:12;4.58;84.53
75170;SHT31;63749;49.186;9.222;2022-12-07T08:09:38;4.50;84.23
75170;SHT31;63749;49.186;9.222;2022-12-07T08:12:03;4.62;85.03
75170;SHT31;63749;49.186;9.222;2022-12-07T08:14:30;4.72;83.89
75170;SHT31;63749;49.186;9.222;2022-12-07T08:16:55;4.69;84.09
75170;SHT31;63749;49.186;9.222;2022-12-07T08:19:21;4.74;84.57
75170;SHT31;63749;49.186;9.222;2022-12-07T08:21:46;4.75;84.15
75170;SHT31;63749;49.186;9.222;2022-12-07T08:24:12;4.54;84.80
75170;SHT31;63749;49.186;9.222;2022-12-07T08:26:37;4.54;85.57
75170;SHT31;63749;49.186;9.222;2022-12-07T08:29:02;4.53;85.47
75170;SHT31;63749;49.186;9.222;2022-12-07T08:31:28;4.40;85.64
75170;SHT31;63749;49.186;9.222;2022-12-07T08:33:54;4.41;86.25
75170;SHT31;63749;49.186;9.222;2022-12-07T08:36:20;4.27;86.02
75170;SHT31;63749;49.186;9.222;2022-12-07T08:38:47;4.10;87.25
75170;SHT31;63749;49.186;9.222;2022-12-07T08:41:12;4.05;87.98
75170;SHT31;63749;49.186;9.222;2022-12-07T08:43:37;4.07;88.27
75170;SHT31;63749;49.186;9.222;2022-12-07T08:46:09;4.26;86.70
75170;SHT31;63749;49.186;9.222;2022-12-07T08:48:39;4.32;87.55
75170;SHT31;63749;49.186;9.222;2022-12-07T08:51:06;4.36;85.81
75170;SHT31;63749;49.186;9.222;2022-12-07T08:53:33;4.30;85.71
75170;SHT31;63749;49.186;9.222;2022-12-07T08:56:00;4.40;84.87
75170;SHT31;63749;49.186;9.222;2022-12-07T08:58:26;4.43;84.48
75170;SHT31;63749;49.186;9.222;2022-12-07T09:00:51;4.38;84.57
75170;SHT31;63749;49.186;9.222;2022-12-07T09:03:17;4.38;84.78
75170;SHT31;63749;49.186;9.222;2022-12-07T09:05:42;4.38;83.63
75170;SHT31;63749;49.186;9.222;2022-12-07T09:08:08;4.34;84.11
75170;SHT31;63749;49.186;9.222;2022-12-07T09:10:33;4.37;84.69
75170;SHT31;63749;49.186;9.222;2022-12-07T09:12:58;4.40;84.79
75170;SHT31;63749;49.186;9.222;2022-12-07T09:15:26;4.43;83.71
75170;SHT31;63749;49.186;9.222;2022-12-07T09:17:52;4.55;82.44
75170;SHT31;63749;49.186;9.222;2022-12-07T09:20:18;4.65;82.34
75170;SHT31;63749;49.186;9.222;2022-12-07T09:22:43;4.67;82.11
75170;SHT31;63749;49.186;9.222;2022-12-07T09:25:08;4.72;82.15
75170;SHT31;63749;49.186;9.222;2022-12-07T09:27:34;4.68;81.72
75170;SHT31;63749;49.186;9.222;2022-12-07T09:29:59;4.76;82.29
75170;SHT31;63749;49.186;9.222;2022-12-07T09:32:25;4.68;82.05
75170;SHT31;63749;49.186;9.222;2022-12-07T09:34:50;4.72;81.12
75170;SHT31;63749;49.186;9.222;2022-12-07T09:37:15;4.84;81.23
75170;SHT31;63749;49.186;9.222;2022-12-07T09:39:41;4.96;80.51
75170;SHT31;63749;49.186;9.222;2022-12-07T09:42:07;5.00;80.46
75170;SHT31;63749;49.186;9.222;2022-12-07T09:44:34;5.15;79.76
75170;SHT31;63749;49.186;9.222;2022-12-07T09:47:01;5.23;79.40
75170;SHT31;63749;49.186;9.222;2022-12-07T09:49:31;5.35;79.29
75170;SHT31;63749;49.186;9.222;2022-12-07T09:52:29;5.26;79.57
75170;SHT31;63749;49.186;9.222;2022-12-07T09:54:55;5.44;79.58
75170;SHT31;63749;49.186;9.222;2022-12-07T09:57:27;5.39;78.91
75170;SHT31;63749;49.186;9.222;2022-12-07T09:59:56;5.35;79.85
75170;SHT31;63749;49.186;9.222;2022-12-07T10:02:39;5.57;79.01
75170;SHT31;63749;49.186;9.222;2022-12-07T10:05:12;5.51;79.71
75170;SHT31;63749;49.186;9.222;2022-12-07T10:07:38;5.54;80.14
75170;SHT31;63749;49.186;9.222;2022-12-07T10:10:06;5.48;80.30
75170;SHT31;63749;49.186;9.222;2022-12-07T10:12:59;5.51;79.86
75170;SHT31;63749;49.186;9.222;2022-12-07T10:15:54;5.47;80.70
75170;SHT31;63749;49.186;9.222;2022-12-07T10:18:40;5.53;80.89
75170;SHT31;63749;49.186;9.222;2022-12-07T10:21:14;5.53;80.31
75170;SHT31;63749;49.186;9.222;2022-12-07T10:29:30;5.63;79.50
75170;SHT31;63749;49.186;9.222;2022-12-07T10:32:44;5.58;79.84
75170;SHT31;63749;49.186;9.222;2022-12-07T10:34:51;5.58;79.56
75170;SHT31;63749;49.186;9.222;2022-12-07T10:37:40;5.58;80.23
75170;SHT31;63749;49.186;9.222;2022-12-07T10:40:27;5.60;80.31
75170;SHT31;63749;49.186;9.222;2022-12-07T10:51:17;5.58;80.07
75170;SHT31;63749;49.186;9.222;2022-12-07T10:56:29;5.57;79.94
75170;SHT31;63749;49.186;9.222;2022-12-07T11:01:33;5.51;80.62
75170;SHT31;63749;49.186;9.222;2022-12-07T11:04:18;5.39;80.83
75170;SHT31;63749;49.186;9.222;2022-12-07T11:07:04;5.36;81.16
75170;SHT31;63749;49.186;9.222;2022-12-07T11:12:34;5.32;81.08
75170;SHT31;63749;49.186;9.222;2022-12-07T11:17:51;5.54;81.59
75170;SHT31;63749;49.186;9.222;2022-12-07T11:23:24;5.73;80.70
75170;SHT31;63749;49.186;9.222;2022-12-07T11:31:24;6.18;79.68
75170;SHT31;63749;49.186;9.222;2022-12-07T11:34:17;6.22;78.84
75170;SHT31;63749;49.186;9.222;2022-12-07T11:36:45;6.24;78.61
75170;SHT31;63749;49.186;9.222;2022-12-07T11:41:52;6.16;79.39
75170;SHT31;63749;49.186;9.222;2022-12-07T11:44:31;6.16;79.38
75170;SHT31;63749;49.186;9.222;2022-12-07T11:47:05;6.19;79.51
75170;SHT31;63749;49.186;9.222;2022-12-07T11:49:44;6.05;80.08
75170;SHT31;63749;49.186;9.222;2022-12-07T11:52:41;6.14;79.14
75170;SHT31;63749;49.186;9.222;2022-12-07T11:56:02;6.11;80.02
75170;SHT31;63749;49.186;9.222;2022-12-07T12:00:39;5.98;80.05
75170;SHT31;63749;49.186;9.222;2022-12-07T12:03:15;5.98;80.07
75170;SHT31;63749;49.186;9.222;2022-12-07T12:05:45;6.05;80.25
75170;SHT31;63749;49.186;9.222;2022-12-07T12:08:15;5.99;80.40
75170;SHT31;63749;49.186;9.222;2022-12-07T12:10:55;5.95;80.53
75170;SHT31;63749;49.186;9.222;2022-12-07T12:13:41;5.81;81.04
75170;SHT31;63749;49.186;9.222;2022-12-07T12:21:17;6.09;80.53
75170;SHT31;63749;49.186;9.222;2022-12-07T12:23:55;6.12;79.60
75170;SHT31;63749;49.186;9.222;2022-12-07T12:26:24;6.16;79.81
75170;SHT31;63749;49.186;9.222;2022-12-07T12:28:58;6.32;78.87
75170;SHT31;63749;49.186;9.222;2022-12-07T12:31:38;6.33;78.35
75170;SHT31;63749;49.186;9.222;2022-12-07T12:36:58;6.21;79.79
75170;SHT31;63749;49.186;9.222;2022-12-07T12:39:24;6.33;79.13
75170;SHT31;63749;49.186;9.222;2022-12-07T12:41:53;6.32;79.53
75170;SHT31;63749;49.186;9.222;2022-12-07T12:46:57;6.42;79.24
75170;SHT31;63749;49.186;9.222;2022-12-07T12:51:54;6.37;78.52
75170;SHT31;63749;49.186;9.222;2022-12-07T12:54:32;6.36;78.46
75170;SHT31;63749;49.186;9.222;2022-12-07T12:59:56;6.33;79.30
75170;SHT31;63749;49.186;9.222;2022-12-07T13:05:16;6.28;78.02
75170;SHT31;63749;49.186;9.222;2022-12-07T13:10:23;6.18;79.04
75170;SHT31;63749;49.186;9.222;2022-12-07T13:15:49;6.24;78.56
75170;SHT31;63749;49.186;9.222;2022-12-07T13:18:36;6.33;78.19
75170;SHT31;63749;49.186;9.222;2022-12-07T13:31:14;6.16;79.03
75170;SHT31;63749;49.186;9.222;2022-12-07T13:33:45;6.16;79.40
75170;SHT31;63749;49.186;9.222;2022-12-07T13:36:26;6.16;78.92
75170;SHT31;63749;49.186;9.222;2022-12-07T13:38:57;6.04;79.60
75170;SHT31;63749;49.186;9.222;2022-12-07T13:41:28;5.97;80.20
75170;SHT31;63749;49.186;9.222;2022-12-07T13:44:00;6.04;79.62
75170;SHT31;63749;49.186;9.222;2022-12-07T13:46:35;5.99;79.66
75170;SHT31;63749;49.186;9.222;2022-12-07T13:49:17;5.97;79.64
75170;SHT31;63749;49.186;9.222;2022-12-07T13:51:43;5.95;79.70
75170;SHT31;63749;49.186;9.222;2022-12-07T13:54:10;5.93;79.78
75170;SHT31;63749;49.186;9.222;2022-12-07T13:56:37;5.93;80.36
75170;SHT31;63749;49.186;9.222;2022-12-07T13:59:07;5.95;79.94
75170;SHT31;63749;49.186;9.222;2022-12-07T14:01:37;5.99;79.78
75170;SHT31;63749;49.186;9.222;2022-12-07T14:04:32;5.88;80.47
75170;SHT31;63749;49.186;9.222;2022-12-07T14:06:58;5.90;80.45
75170;SHT31;63749;49.186;9.222;2022-12-07T14:09:25;5.73;80.97
75170;SHT31;63749;49.186;9.222;2022-12-07T14:11:53;5.57;81.24
75170;SHT31;63749;49.186;9.222;2022-12-07T14:14:27;5.68;80.84
75170;SHT31;63749;49.186;9.222;2022-12-07T14:16:59;5.60;81.54
75170;SHT31;63749;49.186;9.222;2022-12-07T14:19:43;5.56;81.28
75170;SHT31;63749;49.186;9.222;2022-12-07T14:22:27;5.53;81.36
75170;SHT31;63749;49.186;9.222;2022-12-07T14:27:33;5.57;81.41
75170;SHT31;63749;49.186;9.222;2022-12-07T14:30:00;5.40;81.23
75170;SHT31;63749;49.186;9.222;2022-12-07T14:32:28;5.42;81.87
75170;SHT31;63749;49.186;9.222;2022-12-07T14:35:11;5.29;83.01
75170;SHT31;63749;49.186;9.222;2022-12-07T14:37:38;5.27;82.96
75170;SHT31;63749;49.186;9.222;2022-12-07T14:40:04;5.29;83.04
75170;SHT31;63749;49.186;9.222;2022-12-07T14:42:31;5.40;82.33
75170;SHT31;63749;49.186;9.222;2022-12-07T14:44:57;5.39;82.25
75170;SHT31;63749;49.186;9.222;2022-12-07T14:47:24;5.32;82.85
75170;SHT31;63749;49.186;9.222;2022-12-07T14:49:49;5.37;82.49
75170;SHT31;63749;49.186;9.222;2022-12-07T14:52:18;5.42;82.43
75170;SHT31;63749;49.186;9.222;2022-12-07T14:54:44;5.25;82.82
75170;SHT31;63749;49.186;9.222;2022-12-07T14:57:10;5.27;82.65
75170;SHT31;63749;49.186;9.222;2022-12-07T14:59:36;5.18;83.33
75170;SHT31;63749;49.186;9.222;2022-12-07T15:02:02;5.05;83.84
75170;SHT31;63749;49.186;9.222;2022-12-07T15:04:27;5.12;83.12
75170;SHT31;63749;49.186;9.222;2022-12-07T15:07:02;5.02;83.67
75170;SHT31;63749;49.186;9.222;2022-12-07T15:09:28;5.23;83.26
75170;SHT31;63749;49.186;9.222;2022-12-07T15:11:53;5.22;83.39
75170;SHT31;63749;49.186;9.222;2022-12-07T15:14:19;5.11;83.58
75170;SHT31;63749;49.186;9.222;2022-12-07T15:16:44;5.09;83.81
75170;SHT31;63749;49.186;9.222;2022-12-07T15:19:12;5.16;83.70
75170;SHT31;63749;49.186;9.222;2022-12-07T15:21:38;5.13;84.00
75170;SHT31;63749;49.186;9.222;2022-12-07T15:24:04;5.08;83.82
75170;SHT31;63749;49.186;9.222;2022-12-07T15:26:29;5.09;83.83
75170;SHT31;63749;49.186;9.222;2022-12-07T15:28:54;5.05;84.04
75170;SHT31;63749;49.186;9.222;2022-12-07T15:31:20;5.04;84.42
75170;SHT31;63749;49.186;9.222;2022-12-07T15:33:45;5.15;84.10
75170;SHT31;63749;49.186;9.222;2022-12-07T15:36:19;5.06;84.34
75170;SHT31;63749;49.186;9.222;2022-12-07T15:38:45;4.91;84.85
75170;SHT31;63749;49.186;9.222;2022-12-07T15:41:11;4.88;85.24
75170;SHT31;63749;49.186;9.222;2022-12-07T15:43:36;4.81;85.06
75170;SHT31;63749;49.186;9.222;2022-12-07T15:46:20;4.72;85.24
75170;SHT31;63749;49.186;9.222;2022-12-07T15:48:45;4.64;85.71
75170;SHT31;63749;49.186;9.222;2022-12-07T15:51:11;4.75;85.40
75170;SHT31;63749;49.186;9.222;2022-12-07T15:53:36;4.69;85.20
75170;SHT31;63749;49.186;9.222;2022-12-07T15:56:05;4.74;85.22
75170;SHT31;63749;49.186;9.222;2022-12-07T15:58:31;4.57;85.64
75170;SHT31;63749;49.186;9.222;2022-12-07T16:00:56;4.58;86.04
75170;SHT31;63749;49.186;9.222;2022-12-07T16:03:21;4.50;86.30
75170;SHT31;63749;49.186;9.222;2022-12-07T16:05:51;4.43;86.19
75170;SHT31;63749;49.186;9.222;2022-12-07T16:08:17;4.40;86.43
75170;SHT31;63749;49.186;9.222;2022-12-07T16:10:42;4.34;86.70
75170;SHT31;63749;49.186;9.222;2022-12-07T16:13:09;4.36;86.74
75170;SHT31;63749;49.186;9.222;2022-12-07T16:15:38;4.47;86.41
75170;SHT31;63749;49.186;9.222;2022-12-07T16:18:03;4.41;86.69
75170;SHT31;63749;49.186;9.222;2022-12-07T16:20:29;4.46;86.42
75170;SHT31;63749;49.186;9.222;2022-12-07T16:22:54;4.43;86.54
75170;SHT31;63749;49.186;9.222;2022-12-07T16:25:19;4.41;86.57
75170;SHT31;63749;49.186;9.222;2022-12-07T16:27:45;4.41;85.73
75170;SHT31;63749;49.186;9.222;2022-12-07T16:30:12;4.43;86.10
75170;SHT31;63749;49.186;9.222;2022-12-07T16:32:37;4.44;85.88
75170;SHT31;63749;49.186;9.222;2022-12-07T16:35:02;4.46;85.88
75170;SHT31;63749;49.186;9.222;2022-12-07T16:37:28;4.46;86.09
75170;SHT31;63749;49.186;9.222;2022-12-07T16:39:53;4.40;86.49
75170;SHT31;63749;49.186;9.222;2022-12-07T16:42:18;4.38;86.38
75170;SHT31;63749;49.186;9.222;2022-12-07T16:44:44;4.33;86.57
75170;SHT31;63749;49.186;9.222;2022-12-07T16:47:09;4.32;86.80
75170;SHT31;63749;49.186;9.222;2022-12-07T16:49:34;4.33;86.50
75170;SHT31;63749;49.186;9.222;2022-12-07T16:52:00;4.29;86.60
75170;SHT31;63749;49.186;9.222;2022-12-07T16:54:25;4.23;86.68
75170;SHT31;63749;49.186;9.222;2022-12-07T16:56:53;4.27;86.61
75170;SHT31;63749;49.186;9.222;2022-12-07T16:59:18;4.27;86.14
75170;SHT31;63749;49.186;9.222;2022-12-07T17:01:44;4.27;86.00
75170;SHT31;63749;49.186;9.222;2022-12-07T17:04:09;4.26;85.71
75170;SHT31;63749;49.186;9.222;2022-12-07T17:06:35;4.32;85.64
75170;SHT31;63749;49.186;9.222;2022-12-07T17:09:01;4.33;85.40
75170;SHT31;63749;49.186;9.222;2022-12-07T17:11:29;4.46;84.76
75170;SHT31;63749;49.186;9.222;2022-12-07T17:13:56;4.33;85.58
75170;SHT31;63749;49.186;9.222;2022-12-07T17:16:40;4.47;84.45
75170;SHT31;63749;49.186;9.222;2022-12-07T17:19:07;4.44;84.83
75170;SHT31;63749;49.186;9.222;2022-12-07T17:21:33;4.30;85.18
75170;SHT31;63749;49.186;9.222;2022-12-07T17:23:59;4.26;85.48
75170;SHT31;63749;49.186;9.222;2022-12-07T17:26:26;4.29;85.43
75170;SHT31;63749;49.186;9.222;2022-12-07T17:28:52;4.38;85.09
75170;SHT31;63749;49.186;9.222;2022-12-07T17:31:19;4.33;85.01
75170;SHT31;63749;49.186;9.222;2022-12-07T17:33:45;4.30;85.21
75170;SHT31;63749;49.186;9.222;2022-12-07T17:36:21;4.36;84.93
75170;SHT31;63749;49.186;9.222;2022-12-07T17:38:47;4.44;84.59